createdAt,value
2023-04-28T00:00:43.374Z,38.70
2023-04-28T00:03:13.244Z,42.73
2023-04-28T00:05:42.201Z,36.70
2023-04-28T00:08:10.735Z,39.17
2023-04-28T00:10:39.623Z,38.23
2023-04-28T00:13:08.089Z,42.20
2023-04-28T00:15:36.514Z,38.57
2023-04-28T00:18:04.956Z,39.63
2023-04-28T00:20:34.807Z,42.07
2023-04-28T00:23:03.236Z,40.13
2023-04-28T00:25:31.723Z,38.73
2023-04-28T00:28:00.244Z,43.57
2023-04-28T00:30:28.709Z,45.03
2023-04-28T00:32:57.250Z,39.00
2023-04-28T00:35:25.707Z,42.63
2023-04-28T00:37:55.226Z,43.10
2023-04-28T00:40:23.696Z,45.67
2023-04-28T00:42:52.059Z,45.67
2023-04-28T00:45:20.794Z,45.30
2023-04-28T00:47:49.195Z,48.33
2023-04-28T00:50:18.528Z,47.97
2023-04-28T00:52:47.754Z,44.33
2023-04-28T00:55:18.277Z,45.30
2023-04-28T00:57:47.195Z,52.97
2023-04-28T01:00:17.363Z,52.30
2023-04-28T01:02:46.173Z,56.90
2023-04-28T01:05:15.879Z,53.87
2023-04-28T01:07:44.282Z,51.07
2023-04-28T01:10:12.961Z,49.53
2023-04-28T01:12:42.606Z,51.27
2023-04-28T01:15:17.080Z,56.07
2023-04-28T01:17:46.158Z,53.13
2023-04-28T01:20:14.849Z,51.50
2023-04-28T01:22:43.268Z,53.00
2023-04-28T01:25:13.026Z,58.40
2023-04-28T01:27:41.479Z,57.27
2023-04-28T01:30:11.196Z,53.57
2023-04-28T01:32:39.633Z,58.57
2023-04-28T01:35:08.419Z,60.37
2023-04-28T01:37:36.895Z,53.63
2023-04-28T01:40:05.860Z,58.47
2023-04-28T01:42:35.509Z,57.03
2023-04-28T01:45:05.340Z,52.80
2023-04-28T01:47:34.152Z,59.57
2023-04-28T01:50:03.060Z,55.80
2023-04-28T01:52:31.497Z,57.57
2023-04-28T01:54:59.882Z,57.10
2023-04-28T01:57:29.213Z,61.13
2023-04-28T01:59:59.643Z,61.17
2023-04-28T02:02:28.208Z,62.23
2023-04-28T02:07:26.460Z,58.27
2023-04-28T02:09:55.294Z,65.43
2023-04-28T02:12:23.721Z,66.97
2023-04-28T02:14:52.337Z,68.10
2023-04-28T02:17:21.935Z,66.30
2023-04-28T02:19:55.271Z,66.70
2023-04-28T02:22:23.899Z,62.43
2023-04-28T02:24:52.172Z,71.80
2023-04-28T02:27:20.802Z,72.77
2023-04-28T02:29:49.193Z,70.43
2023-04-28T02:32:17.569Z,72.13
2023-04-28T02:34:47.345Z,73.70
2023-04-28T02:37:15.774Z,68.73
2023-04-28T02:39:44.579Z,72.43
2023-04-28T02:42:13.028Z,75.80
2023-04-28T02:44:41.243Z,71.00
2023-04-28T02:47:09.763Z,79.07
2023-04-28T02:49:38.601Z,65.23
2023-04-28T02:52:08.394Z,62.83
2023-04-28T02:54:37.411Z,67.50
2023-04-28T02:57:05.961Z,67.67
2023-04-28T02:59:35.448Z,70.83
2023-04-28T03:02:03.860Z,79.63
2023-04-28T03:04:32.482Z,73.97
2023-04-28T03:07:00.889Z,76.33
2023-04-28T03:09:30.570Z,85.43
2023-04-28T03:11:58.929Z,80.87
2023-04-28T03:14:27.598Z,81.90
2023-04-28T03:16:56.473Z,88.30
2023-04-28T03:19:25.072Z,85.17
2023-04-28T03:21:53.510Z,92.20
2023-04-28T03:24:22.436Z,92.20
2023-04-28T03:26:52.152Z,96.10
2023-04-28T03:29:21.169Z,98.37
2023-04-28T03:31:49.540Z,98.93
2023-04-28T03:34:18.179Z,94.17
2023-04-28T03:36:46.733Z,98.23
2023-04-28T03:39:15.185Z,96.23
2023-04-28T03:41:43.630Z,94.63
2023-04-28T03:44:13.236Z,101.73
2023-04-28T03:46:41.915Z,96.87
2023-04-28T03:49:10.379Z,101.57
2023-04-28T03:51:38.762Z,97.70
2023-04-28T03:54:07.434Z,116.10
2023-04-28T03:56:36.290Z,102.07
2023-04-28T03:59:04.987Z,99.80
2023-04-28T04:01:34.625Z,101.60
2023-04-28T04:04:03.410Z,113.00
2023-04-28T04:06:32.415Z,105.37
2023-04-28T04:09:01.186Z,106.83
2023-04-28T04:11:29.718Z,110.13
2023-04-28T04:13:58.326Z,111.70
2023-04-28T04:16:26.971Z,105.30
2023-04-28T04:18:56.954Z,109.43
2023-04-28T04:21:25.346Z,97.23
2023-04-28T04:23:53.904Z,106.87
2023-04-28T04:26:22.770Z,101.07
2023-04-28T04:28:51.188Z,116.27
2023-04-28T04:31:19.973Z,96.17
2023-04-28T04:33:48.719Z,94.97
2023-04-28T04:36:18.429Z,93.47
2023-04-28T04:38:47.018Z,89.27
2023-04-28T04:41:15.764Z,80.83
2023-04-28T04:43:44.215Z,80.63
2023-04-28T04:46:12.495Z,63.80
2023-04-28T04:48:41.283Z,64.03
2023-04-28T04:51:09.750Z,57.07
2023-04-28T04:53:39.528Z,57.27
2023-04-28T04:56:07.966Z,52.30
2023-04-28T04:58:36.509Z,54.53
2023-04-28T05:01:06.019Z,56.33
2023-04-28T05:03:34.542Z,49.87
2023-04-28T05:06:03.807Z,51.83
2023-04-28T05:08:32.206Z,49.60
2023-04-28T05:11:02.235Z,49.30
2023-04-28T05:13:30.885Z,48.17
2023-04-28T05:15:59.331Z,50.57
2023-04-28T05:18:27.930Z,47.77
2023-04-28T05:20:56.383Z,47.97
2023-04-28T05:23:25.141Z,46.50
2023-04-28T05:25:53.722Z,40.73
2023-04-28T05:28:24.305Z,40.93
2023-04-28T05:30:52.783Z,34.97
2023-04-28T05:33:21.254Z,36.37
2023-04-28T05:35:50.141Z,32.73
2023-04-28T05:38:18.742Z,38.67
2023-04-28T05:40:47.228Z,32.00
2023-04-28T05:43:15.677Z,32.57
2023-04-28T05:45:45.332Z,31.47
2023-04-28T05:48:13.989Z,30.10
2023-04-28T05:50:42.379Z,34.43
2023-04-28T05:53:11.024Z,33.70
2023-04-28T05:55:39.637Z,32.73
2023-04-28T05:58:08.190Z,33.93
2023-04-28T06:00:36.770Z,31.67
2023-04-28T06:03:07.066Z,26.07
2023-04-28T06:05:36.113Z,26.17
2023-04-28T06:08:04.753Z,21.50
2023-04-28T06:10:33.440Z,19.83
2023-04-28T06:13:02.606Z,18.73
2023-04-28T06:15:31.424Z,17.70
2023-04-28T06:18:00.296Z,17.80
2023-04-28T06:20:30.073Z,16.97
2023-04-28T06:22:58.764Z,17.83
2023-04-28T06:25:27.210Z,20.37
2023-04-28T06:27:55.584Z,22.87
2023-04-28T06:30:24.648Z,22.13
2023-04-28T06:32:53.385Z,19.33
2023-04-28T06:35:21.940Z,19.60
2023-04-28T06:37:51.593Z,19.07
2023-04-28T06:40:20.129Z,18.67
2023-04-28T06:42:48.783Z,14.53
2023-04-28T06:45:17.245Z,18.93
2023-04-28T06:47:46.323Z,17.80
2023-04-28T06:50:14.919Z,9.20
2023-04-28T06:52:43.326Z,7.63
2023-04-28T06:55:17.191Z,9.33
2023-04-28T06:57:45.723Z,11.37
2023-04-28T07:00:15.182Z,9.10
2023-04-28T07:02:43.824Z,11.60
2023-04-28T07:05:13.105Z,8.43
2023-04-28T07:07:43.251Z,9.30
2023-04-28T07:10:13.410Z,7.63
2023-04-28T07:12:41.808Z,7.53
2023-04-28T07:15:11.032Z,7.57
2023-04-28T07:17:39.568Z,2.23
2023-04-28T07:20:09.034Z,6.13
2023-04-28T07:22:38.577Z,2.80
2023-04-28T07:25:07.558Z,7.03
2023-04-28T07:27:37.434Z,4.63
2023-04-28T07:30:19.010Z,4.90
2023-04-28T07:32:54.941Z,2.90
2023-04-28T07:35:23.777Z,7.20
2023-04-28T07:37:52.262Z,5.70
2023-04-28T07:40:20.954Z,7.13
2023-04-28T07:42:51.678Z,6.47
2023-04-28T07:45:20.184Z,7.07
2023-04-28T07:47:48.651Z,7.30
2023-04-28T07:50:18.114Z,10.00
2023-04-28T07:52:46.669Z,6.93
2023-04-28T07:55:15.051Z,8.53
2023-04-28T07:57:43.612Z,8.17
2023-04-28T08:00:14.686Z,9.97
2023-04-28T08:02:43.322Z,9.40
2023-04-28T08:05:12.055Z,7.30
2023-04-28T08:07:40.687Z,6.90
2023-04-28T08:10:11.733Z,6.17
2023-04-28T08:12:40.993Z,7.23
2023-04-28T08:15:10.727Z,5.80
2023-04-28T08:17:40.531Z,3.27
2023-04-28T08:20:10.145Z,3.63
2023-04-28T08:22:38.835Z,3.73
2023-04-28T08:25:07.872Z,5.97
2023-04-28T08:27:38.110Z,6.00
2023-04-28T08:30:07.362Z,3.40
2023-04-28T08:32:35.952Z,3.27
2023-04-28T08:35:06.039Z,2.20
2023-04-28T08:37:34.524Z,3.27
2023-04-28T08:40:07.730Z,3.20
2023-04-28T08:42:37.140Z,4.63
2023-04-28T08:45:06.482Z,2.63
2023-04-28T08:47:36.786Z,3.20
2023-04-28T08:50:08.790Z,2.40
2023-04-28T08:52:37.720Z,6.70
2023-04-28T08:55:09.572Z,4.27
2023-04-28T08:57:41.340Z,3.90
2023-04-28T09:00:11.301Z,4.60
2023-04-28T09:02:42.446Z,2.63
2023-04-28T09:05:14.167Z,2.67
2023-04-28T09:07:46.486Z,5.70
2023-04-28T09:10:19.601Z,4.87
2023-04-28T09:12:49.064Z,7.23
2023-04-28T09:15:34.525Z,3.77
2023-04-28T09:18:03.535Z,5.03
2023-04-28T09:20:36.447Z,3.50
2023-04-28T09:23:18.739Z,4.40
2023-04-28T09:26:01.353Z,4.83
2023-04-28T09:28:30.386Z,4.93
2023-04-28T09:30:59.213Z,3.70
2023-04-28T09:33:27.999Z,5.67
2023-04-28T09:35:57.903Z,6.20
2023-04-28T09:38:27.166Z,5.27
2023-04-28T09:40:57.888Z,5.30
2023-04-28T09:43:27.702Z,6.00
2023-04-28T09:45:56.485Z,6.00
2023-04-28T09:48:33.042Z,10.50
2023-04-28T09:51:04.374Z,8.07
2023-04-28T09:53:33.042Z,8.88
2023-04-28T09:56:02.490Z,6.83
2023-04-28T09:58:32.366Z,8.77
2023-04-28T10:01:01.800Z,10.00
2023-04-28T10:03:31.890Z,13.65
2023-04-28T10:06:03.124Z,9.13
2023-04-28T10:08:31.976Z,10.90
2023-04-28T10:11:00.871Z,12.27
2023-04-28T10:13:29.451Z,9.87
2023-04-28T10:15:58.674Z,11.40
2023-04-28T10:18:27.854Z,11.20
2023-04-28T10:21:01.274Z,11.40
2023-04-28T10:24:10.970Z,10.37
2023-04-28T10:27:08.533Z,11.53
2023-04-28T10:29:37.755Z,11.97
2023-04-28T10:32:26.503Z,10.80
2023-04-28T10:35:15.060Z,10.40
2023-04-28T10:38:05.792Z,13.47
2023-04-28T10:40:37.529Z,14.80
2023-04-28T10:43:06.511Z,15.40
2023-04-28T10:46:07.214Z,16.67
2023-04-28T10:48:57.251Z,15.03
2023-04-28T10:51:30.004Z,14.27
2023-04-28T10:54:28.154Z,13.87
2023-04-28T10:57:23.049Z,10.13
2023-04-28T10:59:52.358Z,15.27
2023-04-28T11:02:43.634Z,9.63
2023-04-28T11:05:19.301Z,7.65
2023-04-28T11:08:33.349Z,5.10
2023-04-28T11:11:25.093Z,9.15
2023-04-28T11:13:55.995Z,9.60
2023-04-28T11:16:27.127Z,7.70
2023-04-28T11:19:03.860Z,11.10
2023-04-28T11:21:33.843Z,11.75
2023-04-28T11:24:02.438Z,12.47
2023-04-28T11:26:30.963Z,13.10
2023-04-28T11:29:01.211Z,10.67
2023-04-28T11:31:29.544Z,8.45
2023-04-28T11:34:08.372Z,6.68
2023-04-28T11:36:38.198Z,8.57
2023-04-28T11:39:08.234Z,8.35
2023-04-28T11:41:37.184Z,7.90
2023-04-28T11:44:13.846Z,5.68
2023-04-28T11:46:51.547Z,7.18
2023-04-28T11:49:21.311Z,7.72
2023-04-28T11:51:50.397Z,14.63
2023-04-28T11:54:23.548Z,12.05
2023-04-28T11:56:52.463Z,9.90
2023-04-28T11:59:26.039Z,9.45
2023-04-28T12:01:57.273Z,7.60
2023-04-28T12:04:29.903Z,10.05
2023-04-28T12:07:03.064Z,10.48
2023-04-28T12:09:32.329Z,13.60
2023-04-28T12:12:02.970Z,13.57
2023-04-28T12:14:35.616Z,10.35
2023-04-28T12:17:04.368Z,15.00
2023-04-28T12:19:45.161Z,13.40
2023-04-28T12:22:17.472Z,13.32
2023-04-28T12:24:46.444Z,13.05
2023-04-28T12:27:21.561Z,15.82
2023-04-28T12:29:51.625Z,14.15
2023-04-28T12:32:20.428Z,11.38
2023-04-28T12:34:50.721Z,12.45
2023-04-28T12:37:19.304Z,6.60
2023-04-28T12:39:47.684Z,7.45
2023-04-28T12:42:16.091Z,5.47
2023-04-28T12:44:45.472Z,5.55
2023-04-28T12:47:15.340Z,6.97
2023-04-28T12:49:44.300Z,4.00
2023-04-28T12:52:12.865Z,4.95
2023-04-28T12:54:47.002Z,5.13
2023-04-28T12:57:15.553Z,3.33
2023-04-28T12:59:44.171Z,5.05
2023-04-28T13:02:14.862Z,5.05
2023-04-28T13:04:46.065Z,4.13
2023-04-28T13:07:15.181Z,6.78
2023-04-28T13:09:43.880Z,2.38
2023-04-28T13:12:13.865Z,3.72
2023-04-28T13:14:42.347Z,5.32
2023-04-28T13:17:12.475Z,4.13
2023-04-28T13:19:42.468Z,6.80
2023-04-28T13:22:11.092Z,7.32
2023-04-28T13:24:39.715Z,10.35
2023-04-28T13:27:10.012Z,11.80
2023-04-28T13:29:39.285Z,12.60
2023-04-28T13:32:08.355Z,10.68
2023-04-28T13:34:38.124Z,12.95
2023-04-28T13:37:07.855Z,9.18
2023-04-28T13:39:36.356Z,11.32
2023-04-28T13:42:05.972Z,11.70
2023-04-28T13:44:34.593Z,7.32
2023-04-28T13:47:05.168Z,8.75
2023-04-28T13:49:33.609Z,10.48
2023-04-28T13:52:03.606Z,10.23
2023-04-28T13:54:33.186Z,9.20
2023-04-28T13:57:01.878Z,8.23
2023-04-28T13:59:30.111Z,8.25
2023-04-28T14:01:58.490Z,11.32
2023-04-28T14:04:27.039Z,10.65
2023-04-28T14:06:55.673Z,10.48
2023-04-28T14:09:25.119Z,7.70
2023-04-28T14:11:56.630Z,7.57
2023-04-28T14:14:25.229Z,9.80
2023-04-28T14:16:53.730Z,10.50
2023-04-28T14:19:22.489Z,9.82
2023-04-28T14:21:50.985Z,13.25
2023-04-28T14:24:20.140Z,14.52
2023-04-28T14:26:49.623Z,17.25
2023-04-28T14:29:19.235Z,14.75
2023-04-28T14:31:47.611Z,12.98
2023-04-28T14:34:16.033Z,9.75
2023-04-28T14:36:44.473Z,10.85
2023-04-28T14:39:12.839Z,11.32
2023-04-28T14:41:41.260Z,14.63
2023-04-28T14:44:09.708Z,15.77
2023-04-28T14:46:39.604Z,14.73
2023-04-28T14:49:09.418Z,13.52
2023-04-28T14:51:37.833Z,11.15
2023-04-28T14:54:06.252Z,16.33
2023-04-28T14:56:34.786Z,13.90
2023-04-28T14:59:03.418Z,14.68
2023-04-28T15:01:32.619Z,13.05
2023-04-28T15:04:03.110Z,18.92
2023-04-28T15:06:32.105Z,19.97
2023-04-28T15:09:00.542Z,17.63
2023-04-28T15:11:28.874Z,16.10
2023-04-28T15:13:57.361Z,15.80
2023-04-28T15:16:25.810Z,16.10
2023-04-28T15:18:54.328Z,17.80
2023-04-28T15:21:24.314Z,19.90
2023-04-28T15:23:52.690Z,17.15
2023-04-28T15:26:21.221Z,19.77
2023-04-28T15:28:50.039Z,15.13
2023-04-28T15:31:18.495Z,18.53
2023-04-28T15:33:47.058Z,17.17
2023-04-28T15:36:15.437Z,20.97
2023-04-28T15:38:45.563Z,22.63
2023-04-28T15:41:14.978Z,22.67
2023-04-28T15:43:44.368Z,21.73
2023-04-28T15:46:14.721Z,21.30
2023-04-28T15:48:43.714Z,22.20
2023-04-28T15:51:12.695Z,24.90
2023-04-28T15:53:41.747Z,17.63
2023-04-28T15:56:11.503Z,18.55
2023-04-28T15:58:39.965Z,19.73
2023-04-28T16:01:08.748Z,19.07
2023-04-28T16:03:37.539Z,21.55
2023-04-28T16:06:06.670Z,22.77
2023-04-28T16:08:35.644Z,15.35
2023-04-28T16:11:05.158Z,23.90
2023-04-28T16:13:37.178Z,16.87
2023-04-28T16:16:09.156Z,20.23
2023-04-28T16:18:40.059Z,16.90
2023-04-28T16:21:08.782Z,25.10
2023-04-28T16:23:37.830Z,17.90
2023-04-28T16:26:06.302Z,18.67
2023-04-28T16:28:36.231Z,20.30
2023-04-28T16:31:04.638Z,19.35
2023-04-28T16:33:33.000Z,23.40
2023-04-28T16:36:01.574Z,18.67
2023-04-28T16:38:29.984Z,17.30
2023-04-28T16:40:58.453Z,12.07
2023-04-28T16:43:26.975Z,14.05
2023-04-28T16:45:56.612Z,14.43
2023-04-28T16:48:25.507Z,15.23
2023-04-28T16:50:53.971Z,16.83
2023-04-28T16:53:22.528Z,19.40
2023-04-28T16:55:51.044Z,17.53
2023-04-28T16:58:19.641Z,21.40
2023-04-28T17:00:48.077Z,20.60
2023-04-28T17:03:18.297Z,18.63
2023-04-28T17:05:46.846Z,20.00
2023-04-28T17:08:15.298Z,26.03
2023-04-28T17:10:43.715Z,21.70
2023-04-28T17:13:12.156Z,18.13
2023-04-28T17:15:40.652Z,25.53
2023-04-28T17:18:09.092Z,32.83
2023-04-28T17:20:38.873Z,26.63
2023-04-28T17:23:07.450Z,21.73
2023-04-28T17:25:35.922Z,26.13
2023-04-28T17:28:04.369Z,34.43
2023-04-28T17:30:33.590Z,26.97
2023-04-28T17:33:02.048Z,32.80
2023-04-28T17:35:30.795Z,30.77
2023-04-28T17:38:00.575Z,38.63
2023-04-28T17:40:28.991Z,33.93
2023-04-28T17:42:58.081Z,31.47
2023-04-28T17:45:26.505Z,33.97
2023-04-28T17:47:56.389Z,28.57
2023-04-28T17:50:25.088Z,26.13
2023-04-28T17:52:54.264Z,26.80
2023-04-28T17:55:24.019Z,26.50
2023-04-28T17:57:52.537Z,23.30
2023-04-28T18:00:21.333Z,34.73
2023-04-28T18:02:49.886Z,28.00
2023-04-28T18:05:18.320Z,25.23
2023-04-28T18:07:47.127Z,32.33
2023-04-28T18:10:16.667Z,29.37
2023-04-28T18:12:46.456Z,23.67
2023-04-28T18:15:14.883Z,23.97
2023-04-28T18:17:43.317Z,26.67
2023-04-28T18:20:12.461Z,29.57
2023-04-28T18:22:41.421Z,30.53
2023-04-28T18:25:10.647Z,28.57
2023-04-28T18:27:39.117Z,26.93
2023-04-28T18:30:10.222Z,28.80
2023-04-28T18:32:38.717Z,29.43
2023-04-28T18:35:07.491Z,34.30
2023-04-28T18:37:37.075Z,33.37
2023-04-28T18:40:05.597Z,26.87
2023-04-28T18:42:34.149Z,34.00
2023-04-28T18:45:02.794Z,29.13
2023-04-28T18:47:32.491Z,35.43
2023-04-28T18:50:02.602Z,26.70
2023-04-28T18:52:31.200Z,27.37
2023-04-28T18:54:59.786Z,24.00
2023-04-28T18:57:28.090Z,24.07
2023-04-28T18:59:59.758Z,27.03
2023-04-28T19:02:28.469Z,24.67
2023-04-28T19:04:58.308Z,23.77
2023-04-28T19:07:27.057Z,23.30
2023-04-28T19:09:55.451Z,22.53
2023-04-28T19:12:24.962Z,22.17
2023-04-28T19:14:53.638Z,23.43
2023-04-28T19:17:23.385Z,23.67
2023-04-28T19:19:52.205Z,22.53
2023-04-28T19:22:35.956Z,21.37
2023-04-28T19:25:05.381Z,22.90
2023-04-28T19:27:35.515Z,26.87
2023-04-28T19:30:05.296Z,25.27
2023-04-28T19:32:33.734Z,22.57
2023-04-28T19:35:02.283Z,23.10
2023-04-28T19:37:31.184Z,27.23
2023-04-28T19:40:01.008Z,26.00
2023-04-28T19:42:30.157Z,26.80
2023-04-28T19:44:59.892Z,27.20
2023-04-28T19:47:29.597Z,30.40
2023-04-28T19:49:58.126Z,29.57
2023-04-28T19:52:26.458Z,26.77
2023-04-28T19:54:54.969Z,27.03
2023-04-28T19:57:24.789Z,29.37
2023-04-28T19:59:53.460Z,27.77
2023-04-28T20:02:22.210Z,27.73
2023-04-28T20:04:51.038Z,32.10
2023-04-28T20:07:19.498Z,33.73
2023-04-28T20:09:48.437Z,31.57
2023-04-28T20:12:17.810Z,33.60
2023-04-28T20:14:47.465Z,35.27
2023-04-28T20:17:16.231Z,32.90
2023-04-28T20:19:44.815Z,31.97
2023-04-28T20:22:13.222Z,38.13
2023-04-28T20:24:41.646Z,34.37
2023-04-28T20:27:11.313Z,37.87
2023-04-28T20:29:40.134Z,38.33
2023-04-28T20:32:10.617Z,40.83
2023-04-28T20:34:39.446Z,40.00
2023-04-28T20:37:08.233Z,35.83
2023-04-28T20:39:36.655Z,36.57
2023-04-28T20:42:06.561Z,41.67
2023-04-28T20:44:35.800Z,36.80
2023-04-28T20:47:04.253Z,41.90
2023-04-28T20:49:34.567Z,40.80
2023-04-28T20:52:06.484Z,45.07
2023-04-28T20:54:36.303Z,43.07
2023-04-28T20:57:05.045Z,43.53
2023-04-28T20:59:33.774Z,42.20
2023-04-28T21:02:02.528Z,44.57
2023-04-28T21:04:31.232Z,48.53
2023-04-28T21:07:00.961Z,44.70
2023-04-28T21:09:29.375Z,48.20
2023-04-28T21:11:57.939Z,54.17
2023-04-28T21:14:26.391Z,51.43
2023-04-28T21:16:55.009Z,53.03
2023-04-28T21:19:23.593Z,51.63
2023-04-28T21:21:52.443Z,59.67
2023-04-28T21:24:22.236Z,52.13
2023-04-28T21:26:50.650Z,55.23
2023-04-28T21:29:19.465Z,56.47
2023-04-28T21:31:48.179Z,60.13
2023-04-28T21:34:16.697Z,66.93
2023-04-28T21:36:45.086Z,58.53
2023-04-28T21:39:13.597Z,68.93
2023-04-28T21:41:43.279Z,60.37
2023-04-28T21:44:12.055Z,48.70
2023-04-28T21:46:40.755Z,34.30
2023-04-28T21:49:09.191Z,37.53
2023-04-28T21:51:37.757Z,35.83
2023-04-28T21:54:06.191Z,38.10
2023-04-28T21:56:34.630Z,32.77
2023-04-28T21:59:04.531Z,35.53
2023-04-28T22:01:33.288Z,34.87
2023-04-28T22:04:02.381Z,33.00
2023-04-28T22:06:32.197Z,31.33
2023-04-28T22:09:01.480Z,34.60
2023-04-28T22:11:29.903Z,27.87
2023-04-28T22:13:58.302Z,27.90
2023-04-28T22:16:28.145Z,31.13
2023-04-28T22:18:56.968Z,30.43
2023-04-28T22:21:25.593Z,28.47
2023-04-28T22:23:54.024Z,34.20
2023-04-28T22:26:22.694Z,30.03
2023-04-28T22:28:51.657Z,31.00
2023-04-28T22:31:20.454Z,29.00
2023-04-28T22:33:50.166Z,36.30
2023-04-28T22:36:18.545Z,31.07
2023-04-28T22:38:46.781Z,33.50
2023-04-28T22:41:15.250Z,35.57
2023-04-28T22:43:43.521Z,33.47
2023-04-28T22:46:12.099Z,31.50
2023-04-28T22:48:41.100Z,36.80
2023-04-28T22:51:10.824Z,28.50
2023-04-28T22:53:39.304Z,32.50
2023-04-28T22:56:08.049Z,33.87
2023-04-28T22:58:36.484Z,34.67
2023-04-28T23:01:04.926Z,40.67
2023-04-28T23:03:33.795Z,42.53
2023-04-28T23:06:02.401Z,36.50
2023-04-28T23:08:32.214Z,36.73
2023-04-28T23:11:00.629Z,40.20
2023-04-28T23:13:29.036Z,44.77
2023-04-28T23:16:00.310Z,44.23
2023-04-28T23:18:32.933Z,40.27
2023-04-28T23:21:01.495Z,40.73
2023-04-28T23:23:32.631Z,42.03
2023-04-28T23:26:01.722Z,47.40
2023-04-28T23:28:30.520Z,48.00
2023-04-28T23:30:58.993Z,47.97
2023-04-28T23:33:27.607Z,44.97
2023-04-28T23:35:56.372Z,52.43
2023-04-28T23:38:26.355Z,51.07
2023-04-28T23:40:56.055Z,47.20
2023-04-28T23:43:24.490Z,50.37
2023-04-28T23:45:52.954Z,51.20
2023-04-28T23:48:22.306Z,52.10
2023-04-28T23:50:50.688Z,44.63
2023-04-28T23:53:19.198Z,50.50
2023-04-28T23:55:47.660Z,46.60
2023-04-28T23:58:17.745Z,47.03
